Aviation Digital Data Service (ADDS)

Output produced by METARs form (2335 UTC 25 June 2019)
found at http://aviationweather.gov/metar/data/
 
KARA 251813Z 2518/2618 22010KT P6SM VCTS SCT020CB BKN120 
     TEMPO 2518/2520 VRB15G25KT 3SM SHRA BKN020 
     FM252100 29011KT P6SM VCTS SCT050CB BKN120 
     FM260100 VRB06KT P6SM VCSH SCT025 BKN050